Thunder radar more information blitzortung!


Löydät sääaseman tiedot myös:

European Weather Network

Finland Weather Exchange

Weather Underground

AWEKAS



Weather Underground säähistoriasivu

Päivittäin yhteenveto Helmikuu 13, 2017 Yksiköt:  Molemmat    Englantilaiset   Metriset
« Edellinen Päivä
Seuraava Päivä »
Päivittäin Viikoittain Kuukausittain Vuosittain Mukautettu
  Korkea: Matala: Keskiarvo:
Lämpötila: TemperatureC °F /  -17.8 °C 0.4 °F /  -17.6 °C 3.7 °F /  -15.7 °C
Kastepiste: DewpointC °F /  -17.8 °C -1.0 °F /  -18.3 °C 1.3 °F /  -17.1 °C
Kosteus: Humidity % 79 % 84 %
Tuulen nopeus: WindSpeedKMH mph /  0 km/h - 5.5 mph /  8.9 km/h
Tuulenpuuska: WindSpeedGustKMH mph /  0 km/h - -
Tuuli:- - WSW
Ilmanpaine: PressurehPa in /  0 hPa 1020.5 in /  34554.1 hPa -
Sade: 0.5 in /  12.7 mm    
Historical Graphs
 
 
Taulukkotiedot Helmikuu 13, 2017
Aika Lämpötila Kastepiste Ilmanpaine Tuuli Tuulen nopeus Tuulenpuuska Kosteus Sademäärä (tunneittain)
TemperatureC °F /  -17.8 °C DewpointC °F /  -17.8 °C PressurehPa in /  0 hPa Calm     Humidity % HourlyPrecipMM in /  0 mm
00:00 0.4 °F /  -17.6 °C -0.9 °F /  -18.3 °C 1024.3 in /  34682.8 hPa SSW 8.0 mph /  12.9 km/h 25.7 mph /  41.4 km/h 91 % 0.0 in /  0 mm
00:15 0.4 °F /  -17.6 °C -1.0 °F /  -18.3 °C 1024.3 in /  34682.8 hPa SSW 6.4 mph /  10.3 km/h 19.3 mph /  31.1 km/h 90 % 0.0 in /  0 mm
00:30 0.5 °F /  -17.5 °C -1.0 °F /  -18.3 °C 1024.3 in /  34682.8 hPa SSW 6.4 mph /  10.3 km/h 14.5 mph /  23.3 km/h 90 % 0.0 in /  0 mm
00:45 0.7 °F /  -17.4 °C -0.8 °F /  -18.2 °C 1023.9 in /  34669.3 hPa SSW 8.0 mph /  12.9 km/h 19.3 mph /  31.1 km/h 90 % 0.0 in /  0 mm
01:15 1.1 °F /  -17.2 °C -0.7 °F /  -18.2 °C 1023.6 in /  34659.1 hPa SSW 6.4 mph /  10.3 km/h 14.5 mph /  23.3 km/h 88 % 0.0 in /  0 mm
01:30 1.3 °F /  -17.1 °C -0.6 °F /  -18.1 °C 1023.2 in /  34645.6 hPa SSW 6.4 mph /  10.3 km/h 14.5 mph /  23.3 km/h 87 % 0.0 in /  0 mm
01:45 1.6 °F /  -16.9 °C -0.5 °F /  -18.1 °C 1022.6 in /  34625.2 hPa SSW 8.0 mph /  12.9 km/h 24.1 mph /  38.8 km/h 86 % 0.0 in /  0 mm
02:00 1.7 °F /  -16.8 °C -0.6 °F /  -18.1 °C 1022.9 in /  34635.4 hPa SSW 4.8 mph /  7.7 km/h 17.7 mph /  28.5 km/h 85 % 0.0 in /  0 mm
02:15 1.8 °F /  -16.8 °C -0.5 °F /  -18.1 °C 1022.9 in /  34635.4 hPa SW 6.4 mph /  10.3 km/h 19.3 mph /  31.1 km/h 85 % 0.0 in /  0 mm
02:30 1.8 °F /  -16.8 °C -0.4 °F /  -18 °C 1022.6 in /  34625.2 hPa SSW 6.4 mph /  10.3 km/h 14.5 mph /  23.3 km/h 85 % 0.0 in /  0 mm
02:45 1.8 °F /  -16.8 °C -0.5 °F /  -18.1 °C 1022.6 in /  34625.2 hPa SSW 4.8 mph /  7.7 km/h 9.7 mph /  15.6 km/h 85 % 0.0 in /  0 mm
03:00 1.8 °F /  -16.8 °C -0.4 °F /  -18 °C 1022.6 in /  34625.2 hPa SSW 6.4 mph /  10.3 km/h 17.7 mph /  28.5 km/h 85 % 0.0 in /  0 mm
03:15 1.7 °F /  -16.8 °C -0.5 °F /  -18.1 °C 1022.2 in /  34611.7 hPa SSW 4.8 mph /  7.7 km/h 12.9 mph /  20.8 km/h 85 % 0.0 in /  0 mm
03:30 1.7 °F /  -16.8 °C -0.6 °F /  -18.1 °C 1022.2 in /  34611.7 hPa SW 6.4 mph /  10.3 km/h 14.5 mph /  23.3 km/h 85 % 0.0 in /  0 mm
03:45 1.7 °F /  -16.8 °C -0.4 °F /  -18 °C 1022.2 in /  34611.7 hPa SW 6.4 mph /  10.3 km/h 16.1 mph /  25.9 km/h 86 % 0.0 in /  0 mm
04:00 1.8 °F /  -16.8 °C -0.3 °F /  -17.9 °C 1021.9 in /  34601.5 hPa WSW 8.0 mph /  12.9 km/h 20.9 mph /  33.6 km/h 86 % 0.0 in /  0 mm
04:15 1.9 °F /  -16.7 °C -0.2 °F /  -17.9 °C 1021.6 in /  34591.4 hPa WSW 8.0 mph /  12.9 km/h 22.5 mph /  36.2 km/h 86 % 0.0 in /  0 mm
04:30 2.1 °F /  -16.6 °C 0.0 °F /  -17.8 °C 1022.2 in /  34611.7 hPa WSW 6.4 mph /  10.3 km/h 19.3 mph /  31.1 km/h 86 % 0.0 in /  0 mm
04:45 2.0 °F /  -16.7 °C -0.1 °F /  -17.8 °C 1022.2 in /  34611.7 hPa WSW 6.4 mph /  10.3 km/h 22.5 mph /  36.2 km/h 86 % 0.0 in /  0 mm
05:00 1.9 °F /  -16.7 °C 0.0 °F /  -17.8 °C 1022.2 in /  34611.7 hPa WSW 6.4 mph /  10.3 km/h 16.1 mph /  25.9 km/h 87 % 0.0 in /  0 mm
05:15 2.0 °F /  -16.7 °C 0.1 °F /  -17.7 °C 1021.9 in /  34601.5 hPa SW 6.4 mph /  10.3 km/h 14.5 mph /  23.3 km/h 87 % 0.0 in /  0 mm
05:30 2.0 °F /  -16.7 °C 0.2 °F /  -17.7 °C 1022.2 in /  34611.7 hPa WSW 6.4 mph /  10.3 km/h 17.7 mph /  28.5 km/h 88 % 0.0 in /  0 mm
05:45 2.0 °F /  -16.7 °C 0.1 °F /  -17.7 °C 1022.2 in /  34611.7 hPa SW 6.4 mph /  10.3 km/h 19.3 mph /  31.1 km/h 87 % 0.0 in /  0 mm
06:00 1.9 °F /  -16.7 °C 0.1 °F /  -17.7 °C 1022.2 in /  34611.7 hPa SW 4.8 mph /  7.7 km/h 16.1 mph /  25.9 km/h 88 % 0.0 in /  0 mm
06:15 1.8 °F /  -16.8 °C 0.2 °F /  -17.7 °C 1022.2 in /  34611.7 hPa WSW 4.8 mph /  7.7 km/h 12.9 mph /  20.8 km/h 89 % 0.0 in /  0 mm
06:30 1.8 °F /  -16.8 °C 0.2 °F /  -17.7 °C 1021.9 in /  34601.5 hPa SW 6.4 mph /  10.3 km/h 14.5 mph /  23.3 km/h 89 % 0.0 in /  0 mm
06:45 2.0 °F /  -16.7 °C 0.4 °F /  -17.6 °C 1021.9 in /  34601.5 hPa SW 6.4 mph /  10.3 km/h 14.5 mph /  23.3 km/h 89 % 0.0 in /  0 mm
07:15 2.1 °F /  -16.6 °C 0.6 °F /  -17.4 °C 1021.9 in /  34601.5 hPa WSW 4.8 mph /  7.7 km/h 16.1 mph /  25.9 km/h 90 % 0.0 in /  0 mm
07:45 2.6 °F /  -16.3 °C 0.9 °F /  -17.3 °C 1022.2 in /  34611.7 hPa WSW 6.4 mph /  10.3 km/h 16.1 mph /  25.9 km/h 89 % 0.0 in /  0 mm
08:00 2.7 °F /  -16.3 °C 1.1 °F /  -17.2 °C 1022.2 in /  34611.7 hPa WSW 6.4 mph /  10.3 km/h 14.5 mph /  23.3 km/h 89 % 0.0 in /  0 mm
08:15 2.7 °F /  -16.3 °C 1.1 °F /  -17.2 °C 1022.2 in /  34611.7 hPa SW 6.4 mph /  10.3 km/h 20.9 mph /  33.6 km/h 89 % 0.0 in /  0 mm
08:30 2.7 °F /  -16.3 °C 1.1 °F /  -17.2 °C 1022.2 in /  34611.7 hPa WSW 6.4 mph /  10.3 km/h 17.7 mph /  28.5 km/h 89 % 0.0 in /  0 mm
08:45 2.6 °F /  -16.3 °C 1.0 °F /  -17.2 °C 1022.2 in /  34611.7 hPa WSW 6.4 mph /  10.3 km/h 19.3 mph /  31.1 km/h 89 % 0.0 in /  0 mm
09:00 2.7 °F /  -16.3 °C 1.2 °F /  -17.1 °C 1022.2 in /  34611.7 hPa WSW 6.4 mph /  10.3 km/h 22.5 mph /  36.2 km/h 90 % 0.0 in /  0 mm
09:15 2.9 °F /  -16.2 °C 1.5 °F /  -16.9 °C 1021.9 in /  34601.5 hPa SW 6.4 mph /  10.3 km/h 17.7 mph /  28.5 km/h 90 % 0.0 in /  0 mm
09:45 3.1 °F /  -16.1 °C 1.6 °F /  -16.9 °C 1021.9 in /  34601.5 hPa SW 4.8 mph /  7.7 km/h 14.5 mph /  23.3 km/h 90 % 0.0 in /  0 mm
10:00 3.5 °F /  -15.8 °C 1.9 °F /  -16.7 °C 1021.9 in /  34601.5 hPa WSW 3.2 mph /  5.1 km/h 17.7 mph /  28.5 km/h 89 % 0.0 in /  0 mm
10:15 4.0 °F /  -15.6 °C 2.2 °F /  -16.6 °C 1022.2 in /  34611.7 hPa WSW 4.8 mph /  7.7 km/h 12.9 mph /  20.8 km/h 88 % 0.0 in /  0 mm
10:30 4.1 °F /  -15.5 °C 2.1 °F /  -16.6 °C 1021.9 in /  34601.5 hPa SW 4.8 mph /  7.7 km/h 14.5 mph /  23.3 km/h 87 % 0.0 in /  0 mm
10:45 4.3 °F /  -15.4 °C 2.4 °F /  -16.4 °C 1022.2 in /  34611.7 hPa SW 4.8 mph /  7.7 km/h 17.7 mph /  28.5 km/h 87 % 0.0 in /  0 mm
11:00 4.5 °F /  -15.3 °C 2.4 °F /  -16.4 °C 1021.9 in /  34601.5 hPa WSW 4.8 mph /  7.7 km/h 16.1 mph /  25.9 km/h 86 % 0.0 in /  0 mm
11:15 4.8 °F /  -15.1 °C 2.5 °F /  -16.4 °C 1022.2 in /  34611.7 hPa SW 6.4 mph /  10.3 km/h 12.9 mph /  20.8 km/h 85 % 0.0 in /  0 mm
11:30 5.1 °F /  -14.9 °C 2.7 °F /  -16.3 °C 1022.2 in /  34611.7 hPa SSW 6.4 mph /  10.3 km/h 22.5 mph /  36.2 km/h 85 % 0.0 in /  0 mm
11:45 5.3 °F /  -14.8 °C 2.8 °F /  -16.2 °C 1022.2 in /  34611.7 hPa SSW 4.8 mph /  7.7 km/h 14.5 mph /  23.3 km/h 84 % 0.3 in /  7.62 mm
12:00 5.6 °F /  -14.7 °C 2.9 °F /  -16.2 °C 1022.2 in /  34611.7 hPa SW 4.8 mph /  7.7 km/h 14.5 mph /  23.3 km/h 83 % 0.3 in /  7.62 mm
12:15 5.8 °F /  -14.6 °C 2.9 °F /  -16.2 °C 1021.9 in /  34601.5 hPa SW 3.2 mph /  5.1 km/h 11.3 mph /  18.2 km/h 82 % 0.3 in /  7.62 mm
12:30 5.8 °F /  -14.6 °C 2.8 °F /  -16.2 °C 1021.9 in /  34601.5 hPa SW 4.8 mph /  7.7 km/h 14.5 mph /  23.3 km/h 81 % 0.3 in /  7.62 mm
12:45 5.7 °F /  -14.6 °C 2.7 °F /  -16.3 °C 1021.9 in /  34601.5 hPa SW 4.8 mph /  7.7 km/h 14.5 mph /  23.3 km/h 81 % 0.0 in /  0 mm
13:00 5.7 °F /  -14.6 °C 2.7 °F /  -16.3 °C 1021.9 in /  34601.5 hPa SW 4.8 mph /  7.7 km/h 19.3 mph /  31.1 km/h 81 % 0.0 in /  0 mm
13:15 5.8 °F /  -14.6 °C 2.8 °F /  -16.2 °C 1021.9 in /  34601.5 hPa WSW 6.4 mph /  10.3 km/h 37.0 mph /  59.5 km/h 81 % 0.0 in /  0 mm
13:30 5.8 °F /  -14.6 °C 2.8 °F /  -16.2 °C 1021.9 in /  34601.5 hPa WSW 6.4 mph /  10.3 km/h 17.7 mph /  28.5 km/h 81 % 0.0 in /  0 mm
13:45 5.8 °F /  -14.6 °C 2.8 °F /  -16.2 °C 1021.9 in /  34601.5 hPa WSW 8.0 mph /  12.9 km/h 25.7 mph /  41.4 km/h 81 % 0.0 in /  0 mm
14:15 5.7 °F /  -14.6 °C 2.7 °F /  -16.3 °C 1022.2 in /  34611.7 hPa WSW 4.8 mph /  7.7 km/h 17.7 mph /  28.5 km/h 81 % 0.3 in /  7.62 mm
14:30 5.6 °F /  -14.7 °C 2.6 °F /  -16.3 °C 1021.9 in /  34601.5 hPa WSW 4.8 mph /  7.7 km/h 14.5 mph /  23.3 km/h 81 % 0.3 in /  7.62 mm
14:45 5.5 °F /  -14.7 °C 2.3 °F /  -16.5 °C 1021.9 in /  34601.5 hPa West 4.8 mph /  7.7 km/h 14.5 mph /  23.3 km/h 80 % 0.3 in /  7.62 mm
15:00 5.3 °F /  -14.8 °C 2.3 °F /  -16.5 °C 1021.9 in /  34601.5 hPa WSW 4.8 mph /  7.7 km/h 14.5 mph /  23.3 km/h 81 % 0.3 in /  7.62 mm
15:15 5.2 °F /  -14.9 °C 2.2 °F /  -16.6 °C 1021.6 in /  34591.4 hPa SW 4.8 mph /  7.7 km/h 19.3 mph /  31.1 km/h 81 % 0.0 in /  0 mm
15:30 5.4 °F /  -14.8 °C 2.4 °F /  -16.4 °C 1021.6 in /  34591.4 hPa WSW 3.2 mph /  5.1 km/h 12.9 mph /  20.8 km/h 81 % 0.0 in /  0 mm
15:45 5.9 °F /  -14.5 °C 2.6 °F /  -16.3 °C 1021.6 in /  34591.4 hPa SW 1.6 mph /  2.6 km/h 12.9 mph /  20.8 km/h 79 % 0.0 in /  0 mm
16:00 5.8 °F /  -14.6 °C 2.5 °F /  -16.4 °C 1021.6 in /  34591.4 hPa SSW 3.2 mph /  5.1 km/h 11.3 mph /  18.2 km/h 79 % 0.0 in /  0 mm
16:15 5.6 °F /  -14.7 °C 2.3 °F /  -16.5 °C 1021.6 in /  34591.4 hPa SW 4.8 mph /  7.7 km/h 12.9 mph /  20.8 km/h 79 % 0.0 in /  0 mm
16:30 5.3 °F /  -14.8 °C 2.2 °F /  -16.6 °C 1021.2 in /  34577.8 hPa SW 3.2 mph /  5.1 km/h 14.5 mph /  23.3 km/h 80 % 0.0 in /  0 mm
17:00 4.7 °F /  -15.2 °C 1.9 °F /  -16.7 °C 1021.2 in /  34577.8 hPa SSW 3.2 mph /  5.1 km/h 9.7 mph /  15.6 km/h 82 % 0.0 in /  0 mm
17:15 4.5 °F /  -15.3 °C 1.9 °F /  -16.7 °C 1020.9 in /  34567.7 hPa SSW 3.2 mph /  5.1 km/h 9.7 mph /  15.6 km/h 83 % 0.0 in /  0 mm
17:45 4.4 °F /  -15.3 °C 1.9 °F /  -16.7 °C 1020.9 in /  34567.7 hPa SW 4.8 mph /  7.7 km/h 12.9 mph /  20.8 km/h 84 % 0.0 in /  0 mm
18:00 4.6 °F /  -15.2 °C 1.9 °F /  -16.7 °C 1020.9 in /  34567.7 hPa SW 4.8 mph /  7.7 km/h 16.1 mph /  25.9 km/h 83 % 0.0 in /  0 mm
18:15 4.6 °F /  -15.2 °C 2.0 °F /  -16.7 °C 1020.5 in /  34554.1 hPa WSW 4.8 mph /  7.7 km/h 12.9 mph /  20.8 km/h 83 % 0.0 in /  0 mm
18:30 4.7 °F /  -15.2 °C 1.9 °F /  -16.7 °C 1020.9 in /  34567.7 hPa WSW 4.8 mph /  7.7 km/h 16.1 mph /  25.9 km/h 82 % 0.0 in /  0 mm
19:00 4.9 °F /  -15.1 °C 2.0 °F /  -16.7 °C 1020.9 in /  34567.7 hPa West 6.4 mph /  10.3 km/h 20.9 mph /  33.6 km/h 81 % 0.0 in /  0 mm
19:15 5.0 °F /  -15 °C 2.0 °F /  -16.7 °C 1020.9 in /  34567.7 hPa West 6.4 mph /  10.3 km/h 20.9 mph /  33.6 km/h 81 % 0.0 in /  0 mm
19:30 4.9 °F /  -15.1 °C 1.9 °F /  -16.7 °C 1020.9 in /  34567.7 hPa West 4.8 mph /  7.7 km/h 16.1 mph /  25.9 km/h 81 % 0.0 in /  0 mm
19:45 4.6 °F /  -15.2 °C 1.7 °F /  -16.8 °C 1020.9 in /  34567.7 hPa West 4.8 mph /  7.7 km/h 20.9 mph /  33.6 km/h 82 % 0.0 in /  0 mm
20:00 4.8 °F /  -15.1 °C 2.0 °F /  -16.7 °C 1020.9 in /  34567.7 hPa WNW 6.4 mph /  10.3 km/h 22.5 mph /  36.2 km/h 82 % 0.0 in /  0 mm
20:15 4.8 °F /  -15.1 °C 2.0 °F /  -16.7 °C 1020.9 in /  34567.7 hPa WNW 4.8 mph /  7.7 km/h 19.3 mph /  31.1 km/h 82 % 0.0 in /  0 mm
20:30 4.8 °F /  -15.1 °C 2.0 °F /  -16.7 °C 1021.2 in /  34577.8 hPa West 6.4 mph /  10.3 km/h 20.9 mph /  33.6 km/h 82 % 0.0 in /  0 mm
20:45 4.7 °F /  -15.2 °C 1.9 °F /  -16.7 °C 1020.9 in /  34567.7 hPa WNW 8.0 mph /  12.9 km/h 20.9 mph /  33.6 km/h 82 % 0.0 in /  0 mm
21:00 4.7 °F /  -15.2 °C 1.9 °F /  -16.7 °C 1020.9 in /  34567.7 hPa West 8.0 mph /  12.9 km/h 22.5 mph /  36.2 km/h 82 % 0.0 in /  0 mm
21:15 4.7 °F /  -15.2 °C 2.0 °F /  -16.7 °C 1020.9 in /  34567.7 hPa West 8.0 mph /  12.9 km/h 22.5 mph /  36.2 km/h 83 % 0.0 in /  0 mm
21:45 4.6 °F /  -15.2 °C 1.9 °F /  -16.7 °C 1020.9 in /  34567.7 hPa WNW 4.8 mph /  7.7 km/h 11.3 mph /  18.2 km/h 83 % 0.0 in /  0 mm
22:00 4.7 °F /  -15.2 °C 2.0 °F /  -16.7 °C 1021.2 in /  34577.8 hPa WNW 6.4 mph /  10.3 km/h 25.7 mph /  41.4 km/h 83 % 0.0 in /  0 mm
22:15 4.8 °F /  -15.1 °C 2.0 °F /  -16.7 °C 1021.2 in /  34577.8 hPa NW 4.8 mph /  7.7 km/h 14.5 mph /  23.3 km/h 82 % 0.0 in /  0 mm
22:30 5.1 °F /  -14.9 °C 2.2 °F /  -16.6 °C 1021.2 in /  34577.8 hPa NW 4.8 mph /  7.7 km/h 19.3 mph /  31.1 km/h 82 % 0.0 in /  0 mm
22:45 5.1 °F /  -14.9 °C 2.1 °F /  -16.6 °C 1021.2 in /  34577.8 hPa NW 6.4 mph /  10.3 km/h 14.5 mph /  23.3 km/h 81 % 0.0 in /  0 mm
23:15 4.9 °F /  -15.1 °C 2.1 °F /  -16.6 °C 1021.6 in /  34591.4 hPa West 1.6 mph /  2.6 km/h 16.1 mph /  25.9 km/h 82 % 0.0 in /  0 mm
23:30 5.2 °F /  -14.9 °C 2.2 °F /  -16.6 °C 1021.6 in /  34591.4 hPa WNW 4.8 mph /  7.7 km/h 14.5 mph /  23.3 km/h 81 % 0.0 in /  0 mm
23:45 5.4 °F /  -14.8 °C 2.2 °F /  -16.6 °C 1021.6 in /  34591.4 hPa NW 4.8 mph /  7.7 km/h 14.5 mph /  23.3 km/h 80 % 0.0 in /  0 mm
Esan sääasema
Terveisin Weather Underground - 2.75 mb

Alkuperäinen skripti  Jim McMurry - jmcmurry@mwt.net Sovitettu myös templatelle  Wim van der Kuil - Leuven-Template.eu

Laitteet joita käytämme:

Sääasema
Davis VP2

Sääasemaohjelma
Cumulus

Sääaseman tietokone
Asus EeePC

Palveluntarjoaja
Suncomet

Davis VP2

Cumulus

Asus EeePC

Suncomet